Time;durP1;ratioP1;P1;durP2;ratioP2;P2;SDS_P1;SDS_P2;PMS_P1;PMS_P2;Temp;Humidity;BMP_temperature;BMP_pressure;BME280_temperature;BME280_humidity;BME280_pressure;Samples;Min_cycle;Max_cycle;Signal;HPM_P1;HPM_P2
2022/11/08 00:03:38;;;;;;;13.10;9.20;;;;;;;10.54;76.46;100297.00;5065833;28;20121;-80
2022/11/08 00:14:15;;;;;;;19.13;11.52;;;;;;;10.37;78.44;100278.63;5087402;28;20035;-80
2022/11/08 00:16:40;;;;;;;;;;;;;;;10.59;77.94;100302.25;5088349;28;20032;-80
2022/11/08 00:19:06;;;;;;;;;;;;;;;10.54;78.38;100300.53;5087995;28;19915;-79
2022/11/08 00:21:31;;;;;;;9.93;6.00;;;;;;;10.50;77.93;100276.81;5087848;28;20413;-79
2022/11/08 00:23:56;;;;;;;;;;;;;;;10.61;78.68;100292.56;5083860;28;20033;-79
2022/11/08 00:26:22;;;;;;;;;;;;;;;10.64;78.17;100297.84;5078382;28;19981;-79
2022/11/08 00:28:47;;;;;;;9.43;7.53;;;;;;;10.80;77.42;100278.38;5067242;28;19920;-80
2022/11/08 00:31:12;;;;;;;;;;;;;;;10.70;78.37;100297.78;5078880;28;20305;-79
2022/11/08 00:33:38;;;;;;;16.45;9.18;;;;;;;10.60;78.15;100272.34;5087518;28;19916;-79
2022/11/08 00:36:03;;;;;;;;;;;;;;;10.75;78.04;100294.25;5085062;28;20071;-79
2022/11/08 00:38:28;;;;;;;;;;;;;;;10.90;77.21;100293.25;5069029;28;20015;-79
2022/11/08 00:40:54;;;;;;;12.15;7.15;;;;;;;10.86;77.64;100298.56;5082740;28;19916;-80
2022/11/08 00:43:20;;;;;;;;;;;;;;;10.91;77.13;100296.78;5088129;28;20108;-79
2022/11/08 00:45:45;;;;;;;;;;;;;;;10.95;77.12;100295.88;5088146;28;19918;-80
2022/11/08 00:48:10;;;;;;;6.88;5.20;;;;;;;10.82;77.65;100270.47;5087111;28;19973;-80
2022/11/08 00:50:39;;;;;;;;;;;;;;;11.00;77.12;100288.81;5087805;28;20504;-79
2022/11/08 00:53:05;;;;;;;11.38;9.43;;;;;;;10.69;77.39;100256.44;5087561;28;19923;-79
2022/11/08 00:55:31;;;;;;;14.75;11.25;;;;;;;10.56;77.48;100256.53;5079587;28;20031;-80
2022/11/08 00:57:56;;;;;;;;;;;;;;;10.96;77.33;100287.06;5087842;28;20039;-80
2022/11/08 01:00:22;;;;;;;10.13;8.27;;;;;;;10.93;77.08;100280.03;5085944;28;19916;-80
2022/11/08 01:02:47;;;;;;;;;;;;;;;10.69;78.04;100285.47;5076232;28;20032;-79
2022/11/08 01:05:13;;;;;;;11.52;8.00;;;;;;;10.85;76.96;100257.25;5086493;28;19920;-79
2022/11/08 01:07:38;;;;;;;;;;;;;;;10.95;76.70;100280.03;5087016;28;20039;-80
2022/11/08 01:10:05;;;;;;;13.98;8.00;;;;;;;11.09;76.53;100258.81;5086630;28;19920;-80
2022/11/08 01:12:30;;;;;;;11.75;10.13;;;;;;;11.24;76.22;100271.00;5087279;28;20566;-80
2022/11/08 01:14:55;;;;;;;;;;;;;;;11.31;75.60;100269.19;5087379;28;20024;-81
2022/11/08 01:17:21;;;;;;;;;;;;;;;11.32;75.56;100271.81;5087407;28;20312;-81
2022/11/08 01:19:46;;;;;;;10.45;7.18;;;;;;;11.33;75.12;100252.44;5086212;28;19920;-81
2022/11/08 01:22:11;;;;;;;;;;;;;;;11.44;74.62;100266.41;5086226;28;20036;-81
2022/11/08 01:24:37;;;;;;;;;;;;;;;11.48;74.15;100267.28;5085852;28;19916;-82
2022/11/08 01:27:02;;;;;;;9.07;5.87;;;;;;;11.25;74.55;100252.50;5066782;28;19955;-80
2022/11/08 01:29:28;;;;;;;;;;;;;;;11.47;74.26;100260.22;5068758;28;20284;-80
2022/11/08 01:31:53;;;;;;;;;;;;;;;11.49;74.12;100253.16;5086691;28;19966;-80
2022/11/08 01:34:18;;;;;;;10.10;8.23;;;;;;;11.51;73.55;100243.47;5086934;28;19918;-80
2022/11/08 01:36:44;;;;;;;;;;;;;;;11.47;73.56;100247.88;5086292;28;20300;-80
2022/11/08 01:39:10;;;;;;;14.68;8.32;;;;;;;11.42;73.88;100248.84;5090585;28;19916;-80
2022/11/08 01:41:35;;;;;;;7.85;6.88;;;;;;;11.38;74.02;100232.13;5090216;28;20101;-80
2022/11/08 01:44:00;;;;;;;;;;;;;;;11.41;74.45;100247.09;5091237;28;20028;-80
2022/11/08 01:46:30;;;;;;;;;;;;;;;11.49;74.15;100239.09;5090922;28;19974;-80
2022/11/08 01:49:33;;;;;;;27.40;10.77;;;;;;;11.50;73.98;100244.34;5090717;28;19916;-80
2022/11/08 01:52:15;;;;;;;13.50;9.07;;;;;;;11.42;73.99;100220.66;5090883;28;20038;-80
2022/11/08 01:54:50;;;;;;;16.55;9.27;;;;;;;11.50;74.26;100243.50;5087771;28;20040;-80
2022/11/08 01:57:22;;;;;;;18.25;10.88;;;;;;;11.34;73.26;100195.19;5090414;28;20566;-80
2022/11/08 01:59:51;;;;;;;13.98;9.77;;;;;;;11.31;73.56;100214.63;5087194;28;20528;-80
2022/11/08 02:02:18;;;;;;;13.50;9.50;;;;;;;11.37;73.82;100221.59;5070369;28;20097;-80
2022/11/08 02:04:44;;;;;;;13.05;9.63;;;;;;;11.29;74.01;100206.72;5088243;28;20569;-80
2022/11/08 02:07:10;;;;;;;;;;;;;;;11.33;74.20;100217.25;5090976;28;20028;-80
2022/11/08 02:09:38;;;;;;;8.23;6.70;;;;;;;11.54;73.72;100217.03;5089351;28;19912;-80
2022/11/08 02:12:06;;;;;;;19.80;8.50;;;;;;;11.46;73.53;100198.63;5090225;28;20032;-81
2022/11/08 02:14:32;;;;;;;19.33;11.27;;;;;;;11.38;74.26;100207.50;5090379;28;20039;-80
2022/11/08 02:16:57;;;;;;;;;;;;;;;11.38;74.22;100220.69;5082881;28;20041;-80
2022/11/08 02:19:33;;;;;;;;;;;;;;;11.54;74.02;100222.31;5086526;28;19970;-80
2022/11/08 02:22:04;;;;;;;12.95;9.35;;;;;;;11.35;73.56;100192.53;5090218;28;19924;-81
2022/11/08 02:24:29;;;;;;;18.00;10.95;;;;;;;11.53;73.41;100228.47;5089893;28;20032;-80
2022/11/08 02:26:55;;;;;;;;;;;;;;;11.48;73.53;100227.66;5088933;28;20425;-82
2022/11/08 02:29:31;;;;;;;;;;;;;;;11.45;73.70;100231.19;5090308;28;20340;-80
2022/11/08 02:31:58;;;;;;;8.98;8.25;;;;;;;11.32;73.28;100208.41;5089946;28;19919;-80
2022/11/08 02:34:33;;;;;;;14.05;11.88;;;;;;;11.46;73.19;100234.69;5088734;28;20417;-80
2022/11/08 02:37:00;;;;;;;19.65;10.68;;;;;;;11.16;74.44;100227.97;5089391;28;20036;-80
2022/11/08 02:39:27;;;;;;;17.33;12.27;;;;;;;11.25;74.37;100223.47;5089677;28;20032;-80
2022/11/08 02:41:53;;;;;;;10.05;8.50;;;;;;;11.27;74.86;100224.31;5088612;28;20032;-82
2022/11/08 02:44:18;;;;;;;;;;;;;;;11.40;74.63;100237.41;5090208;28;20081;-81
2022/11/08 02:46:43;;;;;;;25.73;10.25;;;;;;;11.41;74.13;100221.53;5089524;28;19908;-81
2022/11/08 02:49:10;;;;;;;;;;;;;;;11.52;74.20;100245.22;5089350;28;20078;-80
2022/11/08 02:51:35;;;;;;;19.27;7.68;;;;;;;11.51;74.09;100246.13;5089609;28;19951;-81
2022/11/08 02:54:00;;;;;;;;;;;;;;;11.40;74.16;100240.94;5089677;28;20052;-80
2022/11/08 02:56:26;;;;;;;;;;;;;;;10.80;76.67;100245.81;5089446;28;19952;-80
2022/11/08 02:58:51;;;;;;;12.88;8.02;;;;;;;10.88;76.49;100246.66;5089088;28;20363;-80
2022/11/08 03:01:16;;;;;;;;;;;;;;;11.13;75.64;100257.03;5089885;28;20417;-80
2022/11/08 03:03:42;;;;;;;;;;;;;;;11.09;75.90;100261.44;5089329;28;19919;-80
2022/11/08 03:06:07;;;;;;;11.23;9.57;;;;;;;10.94;76.58;100246.63;5089264;28;19927;-80
2022/11/08 03:08:32;;;;;;;;;;;;;;;11.12;75.77;100248.22;5089633;28;20320;-81
2022/11/08 03:10:58;;;;;;;;;;;;;;;11.28;75.16;100254.25;5089517;28;20027;-82
2022/11/08 03:13:24;;;;;;;11.63;9.65;;;;;;;11.26;74.95;100227.88;5089195;28;19969;-80
2022/11/08 03:15:49;;;;;;;;;;;;;;;11.34;74.55;100253.31;5089533;28;20122;-80
2022/11/08 03:18:14;;;;;;;;;;;;;;;11.42;74.61;100244.44;5088788;28;20347;-80
2022/11/08 03:20:40;;;;;;;7.13;6.30;;;;;;;11.13;74.79;100234.13;5088646;28;19927;-80
2022/11/08 03:23:05;;;;;;;;;;;;;;;11.27;74.55;100240.16;5089482;28;20055;-80
2022/11/08 03:25:32;;;;;;;10.25;9.25;;;;;;;11.11;75.78;100246.47;5088841;28;19923;-80
2022/11/08 03:28:07;;;;;;;14.05;9.38;;;;;;;11.15;75.20;100231.47;5088840;28;20135;-80
2022/11/08 03:30:34;;;;;;;15.18;12.25;;;;;;;11.18;75.30;100232.31;5088320;28;20040;-79
2022/11/08 03:32:59;;;;;;;19.15;11.98;;;;;;;11.33;74.77;100238.38;5088575;28;20035;-80
2022/11/08 03:35:25;;;;;;;;;;;;;;;11.36;75.34;100252.41;5089328;28;20387;-80
2022/11/08 03:37:51;;;;;;;;;;;;;;;11.41;75.26;100249.72;5089104;28;19916;-80
2022/11/08 03:40:17;;;;;;;9.55;7.30;;;;;;;11.52;73.30;100250.50;5086970;28;20393;-81
2022/11/08 03:42:43;;;;;;;10.02;8.50;;;;;;;11.27;73.16;100244.56;5088091;28;20040;-80
2022/11/08 03:45:10;;;;;;;;;;;;;;;11.08;73.07;100238.59;5088702;28;20038;-81
2022/11/08 03:47:39;;;;;;;11.40;10.30;;;;;;;10.95;72.67;100231.66;5088745;28;19919;-80
2022/11/08 03:50:06;;;;;;;16.08;9.63;;;;;;;10.89;72.94;100251.94;5088512;28;20038;-79
2022/11/08 03:52:39;;;;;;;10.70;9.23;;;;;;;10.99;73.13;100260.66;5087337;28;20513;-80
2022/11/08 03:55:06;;;;;;;21.15;10.70;;;;;;;10.72;73.30;100252.06;5088331;28;20047;-81
2022/11/08 03:57:31;;;;;;;13.25;8.15;;;;;;;10.51;74.14;100239.88;5087876;28;20421;-79
2022/11/08 03:59:59;;;;;;;;;;;;;;;10.59;74.20;100250.38;5088468;28;20028;-80
2022/11/08 04:02:25;;;;;;;10.13;6.88;;;;;;;10.59;74.01;100216.06;5078605;28;20132;-79
2022/11/08 04:04:50;;;;;;;;;;;;;;;10.81;74.37;100253.72;5088320;28;20505;-81
2022/11/08 04:07:15;;;;;;;;;;;;;;;10.79;74.36;100252.88;5088600;28;19916;-83
2022/11/08 04:09:41;;;;;;;6.50;5.17;;;;;;;10.79;75.04;100252.00;5088416;28;19923;-82
2022/11/08 04:23:03;;;;;;;13.48;9.98;;;;;;;10.46;75.38;100185.41;5066926;28;20480;-81
2022/11/08 04:25:28;;;;;;;;;;;;;;;10.67;75.48;100224.78;5082903;28;20035;-81
2022/11/08 04:27:53;;;;;;;;;;;;;;;10.71;75.80;100228.31;5067557;28;19973;-81
2022/11/08 04:30:19;;;;;;;7.67;7.07;;;;;;;10.68;75.13;100218.66;5066995;28;19916;-80
2022/11/08 04:32:44;;;;;;;;;;;;;;;10.46;76.45;100235.53;5071337;28;20486;-82
2022/11/08 04:35:09;;;;;;;5.68;5.07;;;;;;;10.50;76.75;100242.50;5086323;28;20407;-81
2022/11/08 04:37:35;;;;;;;;;;;;;;;10.60;76.25;100243.31;5085808;28;20113;-80
2022/11/08 04:40:00;;;;;;;9.82;7.00;;;;;;;10.75;76.38;100238.84;5066721;28;19969;-81
2022/11/08 04:42:25;;;;;;;;;;;;;;;10.51;77.54;100245.13;5067308;28;20098;-81
2022/11/08 04:44:51;;;;;;;16.58;11.05;;;;;;;10.48;77.57;100223.19;5067323;28;19938;-82
2022/11/08 04:47:16;;;;;;;;;;;;;;;10.77;76.87;100249.38;5087444;28;20454;-85
2022/11/08 04:49:41;;;;;;;;;;;;;;;10.86;76.66;100254.59;5079514;28;20335;-80
2022/11/08 04:52:07;;;;;;;10.63;9.03;;;;;;;10.83;76.66;100228.22;5070170;28;19928;-79
2022/11/08 04:54:32;;;;;;;;;;;;;;;11.11;76.12;100260.56;5084510;28;20028;-80
2022/11/08 04:56:57;;;;;;;;;;;;;;;10.83;76.80;100265.19;5083711;28;20297;-80
2022/11/08 04:59:23;;;;;;;7.40;6.13;;;;;;;10.82;76.99;100252.84;5081189;28;20007;-84
2022/11/08 05:01:48;;;;;;;;;;;;;;;10.89;76.93;100270.41;5065466;28;20028;-83
2022/11/08 05:04:13;;;;;;;;;;;;;;;10.89;76.88;100272.16;5064905;28;19916;-83
2022/11/08 05:06:39;;;;;;;17.07;8.13;;;;;;;11.05;76.66;100281.72;5063782;28;19995;-84
2022/11/08 05:09:04;;;;;;;;;;;;;;;11.26;76.28;100285.06;5066077;28;20093;-84
2022/11/08 05:11:30;;;;;;;;;;;;;;;11.03;76.79;100279.97;5074989;28;19923;-84
2022/11/08 05:13:56;;;;;;;11.90;7.97;;;;;;;11.23;76.53;100280.72;5083749;28;19926;-84
2022/11/08 05:16:27;;;;;;;13.52;10.10;;;;;;;11.28;75.87;100268.34;5079708;28;20452;-81
2022/11/08 05:18:53;;;;;;;13.23;9.95;;;;;;;11.38;75.32;100276.16;5083487;28;20541;-84
2022/11/08 05:24:06;;;;;;;15.90;10.98;;;;;;;11.52;75.20;100289.25;5085565;28;20467;-81
2022/11/08 05:26:34;;;;;;;16.42;10.82;;;;;;;11.48;75.36;100280.50;5086348;28;20056;-84
2022/11/08 05:28:59;;;;;;;25.38;11.15;;;;;;;11.56;75.39;100288.34;5086218;28;20032;-84
2022/11/08 05:31:25;;;;;;;;;;;;;;;11.60;75.27;100304.16;5086272;28;20494;-84
2022/11/08 05:33:51;;;;;;;;;;;;;;;11.64;74.99;100299.72;5087130;28;19915;-84
2022/11/08 05:36:17;;;;;;;12.20;9.40;;;;;;;11.68;74.48;100287.31;5086653;28;19955;-84
2022/11/08 05:38:43;;;;;;;16.55;10.10;;;;;;;11.70;74.01;100275.88;5086361;28;20039;-84
2022/11/08 05:41:14;;;;;;;;;;;;;;;11.67;73.86;100304.09;5086017;28;20051;-84
2022/11/08 05:43:40;;;;;;;11.77;10.30;;;;;;;11.47;74.03;100286.66;5086452;28;20011;-83
2022/11/08 05:46:06;;;;;;;;;;;;;;;11.52;74.15;100305.97;5087554;28;20127;-83
2022/11/08 05:48:31;;;;;;;12.77;9.35;;;;;;;11.34;74.01;100262.13;5085626;28;19916;-84
2022/11/08 05:50:56;;;;;;;;;;;;;;;11.58;74.00;100315.63;5086781;28;20028;-84
2022/11/08 05:53:22;;;;;;;;;;;;;;;11.57;74.13;100317.41;5086948;28;20395;-84
2022/11/08 05:55:48;;;;;;;10.25;7.85;;;;;;;11.47;74.03;100292.81;5086719;28;19920;-85
2022/11/08 05:58:13;;;;;;;;;;;;;;;11.44;74.90;100313.97;5087641;28;20137;-85
2022/11/08 06:00:39;;;;;;;10.13;8.38;;;;;;;11.42;75.46;100320.16;5073823;28;19963;-84
2022/11/08 06:03:04;;;;;;;;;;;;;;;11.41;75.52;100319.28;5084621;28;20035;-81
2022/11/08 06:05:30;;;;;;;;;;;;;;;11.37;75.82;100319.31;5081086;28;19926;-84
2022/11/08 06:07:55;;;;;;;;;;;;;;;11.37;75.80;100322.84;5073372;28;20011;-83
2022/11/08 06:10:21;;;;;;;6.10;5.53;;;;;;;11.33;76.18;100309.69;5077069;28;19973;-81
2022/11/08 06:12:47;;;;;;;;;;;;;;;11.29;76.62;100319.38;5075595;28;20028;-81
2022/11/08 06:15:12;;;;;;;13.45;9.35;;;;;;;11.37;76.43;100314.94;5079764;28;19916;-82
2022/11/08 06:17:38;;;;;;;;;;;;;;;11.54;75.72;100328.00;5074099;28;20034;-84
2022/11/08 06:20:05;;;;;;;;;;;;;;;11.56;75.99;100333.25;5086320;28;20374;-83
2022/11/08 06:22:32;;;;;;;6.85;5.55;;;;;;;11.57;76.32;100298.00;5065712;28;19930;-82
2022/11/08 06:24:58;;;;;;;18.20;11.95;;;;;;;11.78;76.60;100299.56;5076682;28;20131;-83
2022/11/08 06:27:23;;;;;;;;;;;;;;;11.92;76.28;100339.97;5074909;28;20132;-81
2022/11/08 06:29:49;;;;;;;12.23;7.72;;;;;;;11.88;76.36;100313.56;5080032;28;20441;-82
2022/11/08 06:32:14;;;;;;;;;;;;;;;12.10;76.04;100338.91;5068319;28;20024;-81
2022/11/08 06:34:40;;;;;;;;;;;;;;;12.39;75.35;100331.53;5083275;28;20401;-82
2022/11/08 06:37:05;;;;;;;;;;;;;;;12.41;75.30;100329.75;5081694;28;19982;-81
2022/11/08 06:39:31;;;;;;;14.27;7.75;;;;;;;12.36;74.23;100288.34;5071004;28;19916;-81
2022/11/08 06:41:56;;;;;;;;;;;;;;;12.63;73.90;100333.84;5086064;28;20398;-82
2022/11/08 06:44:22;;;;;;;13.80;11.07;;;;;;;12.43;74.09;100304.16;5088418;28;19916;-84
2022/11/08 06:46:47;;;;;;;;;;;;;;;12.74;73.78;100332.84;5089630;28;20055;-83
2022/11/08 06:49:12;;;;;;;;;;;;;;;12.85;73.40;100338.88;5089188;28;19912;-83
2022/11/08 06:51:38;;;;;;;12.90;10.10;;;;;;;12.87;72.87;100294.72;5087264;28;20011;-82
2022/11/08 06:54:06;;;;;;;;;;;;;;;13.22;72.19;100323.31;5089018;28;20280;-82
2022/11/08 06:56:33;;;;;;;15.50;11.77;;;;;;;13.32;71.52;100334.63;5088224;28;19927;-81
2022/11/08 06:58:58;;;;;;;16.90;13.20;;;;;;;13.28;71.52;100322.31;5088489;28;20139;-83
2022/11/08 07:01:23;;;;;;;;;;;;;;;13.24;71.91;100331.25;5089930;28;20024;-83
2022/11/08 07:03:48;;;;;;;;;;;;;;;13.48;70.59;100331.75;5089834;28;19912;-82
2022/11/08 07:06:14;;;;;;;12.70;9.37;;;;;;;13.37;71.04;100318.69;5089379;28;19951;-81
2022/11/08 07:08:39;;;;;;;;;;;;;;;13.55;70.83;100328.13;5089718;28;20274;-82
2022/11/08 07:11:05;;;;;;;;;;;;;;;13.66;70.33;100325.28;5089475;28;20018;-82
2022/11/08 07:13:30;;;;;;;10.27;8.50;;;;;;;13.43;69.92;100287.66;5088710;28;19915;-83
2022/11/08 07:15:56;;;;;;;;;;;;;;;13.70;70.38;100334.91;5088868;28;20036;-82
2022/11/08 07:18:22;;;;;;;13.00;9.90;;;;;;;13.66;69.06;100312.88;5088078;28;19923;-83
2022/11/08 07:20:47;;;;;;;;;;;;;;;13.96;69.13;100327.38;5089049;28;20552;-83
2022/11/08 07:23:12;;;;;;;;;;;;;;;14.10;68.49;100324.47;5088952;28;20382;-83
2022/11/08 07:25:38;;;;;;;8.95;8.02;;;;;;;14.12;68.26;100313.81;5088503;28;19916;-82
2022/11/08 07:28:05;;;;;;;;;;;;;;;14.45;67.14;100322.00;5089068;28;20027;-82
2022/11/08 07:30:31;;;;;;;23.17;9.35;;;;;;;14.60;66.37;100321.69;5088095;28;19926;-83
2022/11/08 07:32:57;;;;;;;12.65;10.50;;;;;;;14.65;65.22;100311.84;5088748;28;20028;-82
2022/11/08 07:35:23;;;;;;;30.45;9.77;;;;;;;14.99;64.38;100316.38;5088753;28;20077;-83
2022/11/08 07:37:49;;;;;;;15.23;9.68;;;;;;;15.28;64.16;100313.97;5088813;28;20057;-83
2022/11/08 07:40:14;;;;;;;21.67;11.93;;;;;;;15.19;64.07;100312.41;5088617;28;20032;-82
2022/11/08 07:42:42;;;;;;;28.02;10.55;;;;;;;15.35;63.30;100296.94;5089098;28;20461;-82
2022/11/08 07:45:09;;;;;;;22.50;11.23;;;;;;;15.59;62.52;100284.81;5088834;28;20031;-81
2022/11/08 07:47:34;;;;;;;15.15;10.43;;;;;;;15.74;62.54;100289.72;5088401;28;20020;-82
2022/11/08 07:50:00;;;;;;;16.60;12.63;;;;;;;16.13;61.93;100314.41;5088469;28;20043;-83
2022/11/08 07:52:26;;;;;;;21.67;12.20;;;;;;;16.49;60.15;100298.31;5088595;28;20036;-83
2022/11/08 07:54:51;;;;;;;16.13;10.48;;;;;;;16.53;59.50;100294.63;5087826;28;20119;-84
2022/11/08 07:57:17;;;;;;;13.32;8.10;;;;;;;16.81;59.48;100289.34;5088789;28;20092;-83
2022/11/08 07:59:42;;;;;;;26.95;10.20;;;;;;;17.27;56.94;100309.22;5088469;28;20032;-83
2022/11/08 08:02:08;;;;;;;;;;;;;;;17.39;56.72;100317.72;5088693;28;20039;-83
2022/11/08 08:04:34;;;;;;;12.40;8.82;;;;;;;17.43;55.72;100284.72;5088459;28;19916;-84
2022/11/08 08:06:59;;;;;;;19.83;10.13;;;;;;;17.83;55.27;100310.00;5088225;28;20040;-83
2022/11/08 08:09:25;;;;;;;13.02;8.38;;;;;;;17.86;54.88;100304.56;5088503;28;20028;-83
2022/11/08 08:11:50;;;;;;;12.77;7.63;;;;;;;17.59;54.96;100306.38;5088139;28;20092;-83
2022/11/08 08:14:16;;;;;;;11.88;8.02;;;;;;;17.58;54.81;100294.84;5088100;28;20082;-82
2022/11/08 08:16:41;;;;;;;;;;;;;;;17.40;56.43;100315.00;5088373;28;20119;-82
2022/11/08 08:19:07;;;;;;;13.90;8.85;;;;;;;17.58;54.94;100315.28;5087718;28;20384;-83
2022/11/08 08:21:32;;;;;;;12.52;6.97;;;;;;;17.45;55.24;100309.53;5086319;28;20050;-83
2022/11/08 08:23:58;;;;;;;12.85;8.50;;;;;;;17.39;55.93;100313.25;5087728;28;20043;-84
2022/11/08 08:26:23;;;;;;;12.48;7.63;;;;;;;17.20;55.75;100291.66;5087618;28;20051;-83
2022/11/08 08:28:49;;;;;;;13.90;8.85;;;;;;;17.29;56.38;100304.69;5087696;28;20039;-82
2022/11/08 08:31:15;;;;;;;13.35;7.22;;;;;;;17.57;55.62;100311.78;5087841;28;20028;-82
2022/11/08 08:33:40;;;;;;;15.23;8.27;;;;;;;17.49;55.62;100305.84;5087420;28;20040;-82
2022/11/08 08:36:06;;;;;;;16.48;8.80;;;;;;;17.50;55.43;100310.22;5087465;28;20101;-82
2022/11/08 08:38:33;;;;;;;12.45;6.07;;;;;;;17.49;55.26;100304.03;5086318;28;20024;-82
2022/11/08 08:40:59;;;;;;;12.43;8.80;;;;;;;17.63;54.86;100303.56;5087716;28;20552;-83
2022/11/08 08:43:26;;;;;;;14.02;6.18;;;;;;;17.60;55.43;100309.00;5087551;28;20039;-82
2022/11/08 08:45:53;;;;;;;9.68;7.38;;;;;;;17.77;54.83;100311.09;5087503;28;20024;-82
2022/11/08 08:48:19;;;;;;;10.15;6.35;;;;;;;17.81;55.05;100295.81;5086947;28;20093;-83
2022/11/08 08:50:45;;;;;;;15.48;8.63;;;;;;;17.45;55.15;100294.38;5087549;28;20493;-82
2022/11/08 08:53:10;;;;;;;17.58;6.95;;;;;;;17.27;55.82;100290.56;5087678;28;20067;-82
2022/11/08 08:55:41;;;;;;;15.45;8.23;;;;;;;17.13;56.45;100301.66;5087039;28;20028;-82
2022/11/08 08:58:07;;;;;;;23.90;10.25;;;;;;;17.00;56.37;100279.84;5087293;28;20116;-82
2022/11/08 09:00:33;;;;;;;21.20;9.38;;;;;;;16.90;57.28;100301.50;5087325;28;20056;-81
2022/11/08 09:03:07;;;;;;;16.90;8.70;;;;;;;16.65;57.56;100268.50;5087225;28;20554;-82
2022/11/08 09:05:33;;;;;;;12.98;8.82;;;;;;;16.67;57.22;100305.75;5087305;28;20035;-82
2022/11/08 09:07:59;;;;;;;15.85;9.27;;;;;;;16.75;56.63;100274.41;5086979;28;20028;-82
2022/11/08 09:10:25;;;;;;;14.20;8.45;;;;;;;16.97;56.88;100305.75;5087244;28;20410;-82
2022/11/08 09:12:50;;;;;;;14.73;10.57;;;;;;;17.07;57.22;100290.31;5087175;28;20036;-83
2022/11/08 09:15:16;;;;;;;16.40;9.35;;;;;;;17.02;56.77;100292.25;5086867;28;20043;-82
2022/11/08 09:17:42;;;;;;;13.48;7.97;;;;;;;17.20;56.44;100294.34;5086970;28;20114;-82
2022/11/08 09:20:09;;;;;;;12.25;8.27;;;;;;;17.29;55.33;100279.84;5087172;28;20036;-82
2022/11/08 09:22:35;;;;;;;18.23;9.02;;;;;;;17.34;55.33;100283.22;5086876;28;20513;-82
2022/11/08 09:25:01;;;;;;;17.08;8.88;;;;;;;17.41;55.16;100299.88;5086959;28;20092;-82
2022/11/08 09:27:28;;;;;;;18.40;10.13;;;;;;;17.86;54.89;100291.22;5086928;28;20433;-81
2022/11/08 09:29:54;;;;;;;11.68;8.95;;;;;;;18.03;53.83;100278.16;5086989;28;20156;-82
2022/11/08 09:32:19;;;;;;;13.65;8.38;;;;;;;18.02;53.43;100302.25;5086589;28;20473;-82
2022/11/08 09:34:45;;;;;;;13.85;9.40;;;;;;;17.84;53.52;100279.69;5087005;28;20032;-85
2022/11/08 09:37:10;;;;;;;15.25;8.57;;;;;;;17.87;53.38;100280.50;5086851;28;20084;-81
2022/11/08 09:39:35;;;;;;;15.85;9.00;;;;;;;18.07;53.20;100290.47;5087091;28;20028;-83
2022/11/08 09:42:21;;;;;;;15.13;8.18;;;;;;;18.29;53.50;100305.69;5086682;28;20498;-82
2022/11/08 09:44:46;;;;;;;16.08;8.80;;;;;;;18.16;53.02;100297.25;5086868;28;20502;-82
2022/11/08 09:47:29;;;;;;;16.52;7.78;;;;;;;17.89;53.21;100259.13;5086343;28;20115;-82
2022/11/08 09:50:20;;;;;;;16.02;7.93;;;;;;;18.26;53.64;100292.47;5086937;28;20028;-82
2022/11/08 09:52:59;;;;;;;17.48;8.38;;;;;;;18.69;52.74;100289.94;5086394;28;20036;-82
2022/11/08 09:55:36;;;;;;;18.52;9.57;;;;;;;18.73;51.33;100252.34;5086287;28;20116;-82
2022/11/08 09:58:22;;;;;;;17.48;8.93;;;;;;;18.35;52.12;100285.88;5085465;28;20032;-82
2022/11/08 10:00:49;;;;;;;11.88;7.43;;;;;;;18.49;52.29;100282.69;5089984;28;20055;-83
2022/11/08 10:03:16;;;;;;;17.73;6.40;;;;;;;18.15;52.28;100258.16;5082087;28;20205;-85
2022/11/08 10:05:50;;;;;;;13.13;8.15;;;;;;;18.63;52.20;100267.03;5083702;28;20027;-84
2022/11/08 10:08:34;;;;;;;10.23;6.57;;;;;;;18.60;51.42;100288.50;5078333;28;20035;-84
2022/11/08 10:11:09;;;;;;;11.60;6.32;;;;;;;18.60;51.45;100277.81;5070021;28;20024;-84
2022/11/08 10:13:51;;;;;;;13.98;6.60;;;;;;;18.59;52.05;100271.59;5076757;28;20063;-82
2022/11/08 10:16:44;;;;;;;15.00;7.93;;;;;;;18.59;51.72;100281.41;5084303;28;20032;-82
2022/11/08 10:19:33;;;;;;;12.70;6.43;;;;;;;18.65;51.41;100274.97;5089405;28;20497;-83
2022/11/08 10:22:07;;;;;;;12.25;7.63;;;;;;;18.79;51.29;100259.25;5074327;28;20040;-86
2022/11/08 10:24:50;;;;;;;10.75;7.85;;;;;;;18.78;50.73;100261.06;5083098;28;20476;-84
2022/11/08 10:27:27;;;;;;;16.75;7.18;;;;;;;18.70;51.47;100273.84;5070229;28;20048;-84
2022/11/08 10:29:57;;;;;;;12.18;6.78;;;;;;;18.47;51.57;100257.84;5067923;28;20455;-87
2022/11/08 10:32:23;;;;;;;15.90;7.40;;;;;;;18.78;50.79;100269.09;5078905;28;20036;-86
2022/11/08 10:34:57;;;;;;;21.85;9.80;;;;;;;18.58;51.75;100277.00;5074766;28;20028;-85
2022/11/08 10:37:24;;;;;;;20.45;8.23;;;;;;;18.34;51.75;100247.63;5080034;28;20039;-87
2022/11/08 10:39:59;;;;;;;13.77;8.30;;;;;;;18.50;52.23;100273.75;5068791;28;20067;-86
2022/11/08 10:42:37;;;;;;;10.18;7.00;;;;;;;18.27;52.09;100245.25;5076121;28;20051;-86
2022/11/08 10:45:03;;;;;;;11.18;7.00;;;;;;;18.61;51.81;100264.41;5088279;28;20505;-85
2022/11/08 10:47:31;;;;;;;13.80;6.10;;;;;;;18.39;51.47;100234.97;5088454;28;20026;-85
2022/11/08 10:49:57;;;;;;;11.80;6.60;;;;;;;18.59;51.30;100260.03;5085553;28;20032;-86
2022/11/08 10:52:44;;;;;;;15.13;7.18;;;;;;;18.83;51.30;100262.66;5067942;28;20121;-86
2022/11/08 10:55:37;;;;;;;10.82;7.18;;;;;;;18.49;51.72;100253.31;5086989;28;20032;-85
2022/11/08 10:58:04;;;;;;;11.00;6.35;;;;;;;18.50;51.60;100220.34;5088609;28;20409;-85
2022/11/08 11:00:32;;;;;;;12.75;8.00;;;;;;;18.74;51.57;100240.72;5088949;28;20035;-84
2022/11/08 11:03:17;;;;;;;11.55;6.50;;;;;;;18.53;51.36;100241.59;5089019;28;20127;-85
2022/11/08 11:05:54;;;;;;;13.80;7.43;;;;;;;18.70;51.15;100225.75;5088510;28;20695;-85
2022/11/08 11:08:21;;;;;;;10.18;6.80;;;;;;;18.81;50.55;100227.13;5088179;28;20028;-86
2022/11/08 11:10:48;;;;;;;12.35;8.27;;;;;;;19.02;49.95;100220.94;5087559;28;20118;-85
2022/11/08 11:13:25;;;;;;;12.45;8.27;;;;;;;18.96;50.13;100230.06;5088151;28;20024;-84
2022/11/08 11:15:57;;;;;;;11.07;6.28;;;;;;;18.88;51.00;100232.19;5088533;28;20036;-84
2022/11/08 11:18:36;;;;;;;11.18;6.72;;;;;;;19.10;50.84;100228.63;5086685;28;20402;-84
2022/11/08 11:21:10;;;;;;;10.57;6.38;;;;;;;19.12;49.81;100214.28;5088041;28;20131;-85
2022/11/08 11:23:41;;;;;;;13.27;7.68;;;;;;;19.19;49.28;100189.94;5088884;28;20133;-85
2022/11/08 11:26:16;;;;;;;21.95;7.15;;;;;;;19.37;49.20;100198.97;5087911;28;20051;-85
2022/11/08 11:29:02;;;;;;;14.50;7.30;;;;;;;19.42;48.58;100210.34;5088177;28;20032;-84
2022/11/08 11:31:28;;;;;;;11.23;7.10;;;;;;;19.32;48.68;100194.69;5088365;28;20327;-85
2022/11/08 11:33:54;;;;;;;12.82;6.65;;;;;;;19.24;49.38;100193.28;5088204;28;20032;-86
2022/11/08 11:36:23;;;;;;;7.53;5.03;;;;;;;19.15;49.11;100213.25;5087878;28;20564;-85
2022/11/08 11:39:05;;;;;;;22.98;7.65;;;;;;;19.32;49.33;100218.78;5088250;28;20118;-85
2022/11/08 11:42:07;;;;;;;13.15;6.43;;;;;;;19.19;48.57;100200.63;5088104;28;20082;-85
2022/11/08 11:44:48;;;;;;;11.52;7.07;;;;;;;19.55;48.75;100206.19;5084248;28;20040;-85
2022/11/08 11:47:25;;;;;;;10.20;6.32;;;;;;;19.67;47.84;100178.88;5087579;28;20513;-83
2022/11/08 11:49:54;;;;;;;13.88;7.80;;;;;;;19.12;48.59;100190.22;5088083;28;20089;-83
2022/11/08 11:52:19;;;;;;;12.55;7.18;;;;;;;18.96;49.59;100176.59;5087585;28;20028;-86
2022/11/08 11:54:48;;;;;;;16.77;6.85;;;;;;;19.32;48.56;100161.72;5087824;28;20027;-85
2022/11/08 11:57:33;;;;;;;17.77;8.48;;;;;;;19.07;48.71;100173.47;5087465;28;20086;-86
2022/11/08 12:00:13;;;;;;;13.15;8.25;;;;;;;19.19;49.25;100195.28;5087683;28;20078;-86
2022/11/08 12:03:00;;;;;;;9.23;6.28;;;;;;;19.40;48.49;100189.03;5087660;28;20047;-86
2022/11/08 12:05:28;;;;;;;9.13;6.70;;;;;;;19.28;48.69;100192.22;5087811;28;20032;-85
2022/11/08 12:08:13;;;;;;;10.40;5.63;;;;;;;19.19;48.96;100184.59;5088076;28;20032;-83